• Join FlightAware (Why Join?)
  • Login
  • US Flag 
01:36AM EDT


 

Airport Tracker/Info


-or-


 

Live Flight TrackerFlight Track Log ✈ SWA1725 ✈ 09-Apr-2013 ✈ KMDW - KBHM

Flight Track Log - Related Links

Times and Time Zones

All times are in EDT time to prevent confusion due to time zone crossing. See the SWA1725 flight status page for this flight to view local times or setup timezone preferences in your user account.

Time Position Orientation Groundspeed Altitude Reporting Facility
EDT Latitude Longitude Course Direction KTS MPH feet Rate Location/Type
09:46PM 41.7147 -87.7025 152° Southeast 214 246 6,000  Level Chicago Center
09:47PM 41.6469 -87.7431 204° Southwest 261 300 10,100 3,540 Climbing Chicago Center
09:48PM 41.5714 -87.7861 203° Southwest 292 336 13,300 3,540 Climbing Chicago Center
09:49PM 41.4822 -87.8372 203° Southwest 341 392 17,400 3,780 Climbing Chicago Center
09:50PM 41.3867 -87.8797 198° South 359 413 21,100 3,300 Climbing Chicago Center
09:51PM 41.2772 -87.8903 184° South 383 441 24,200 2,760 Climbing Chicago Center
09:52PM 41.1636 -87.8914 180° South 401 461 26,800 2,460 Climbing Chicago Center
09:53PM 41.0444 -87.8867 178° South 422 486 29,300 2,340 Climbing Chicago Center
09:54PM 40.9236 -87.8822 178° South 433 498 31,600 2,520 Climbing Chicago Center
09:55PM 40.7781 -87.8531 171° South 443 510 34,500 2,520 Climbing Chicago Center
09:56PM 40.6592 -87.8336 173° South 436 502 36,800 1,980 Climbing Chicago Center
09:57PM 40.5414 -87.8147 173° South 428 493 38,600 1,560 Climbing Chicago Center
09:58PM 40.4256 -87.7944 172° South 423 487 40,000 1,440 Climbing Chicago Center
09:59PM 40.3708 -87.7847 172° South 425 489 40,700 660 Climbing Indianapolis Center
10:00PM 40.2536 -87.7664 173° South 424 488 41,000 120 Climbing Indianapolis Center
10:01PM 40.1353 -87.7464 173° South 426 490 41,000  Level Indianapolis Center
10:02PM 40.0178 -87.7267 173° South 425 489 41,000  Level Indianapolis Center
10:03PM 39.9000 -87.7081 173° South 425 489 41,000  Level Indianapolis Center
10:04PM 39.7842 -87.6892 173° South 422 486 41,000  Level Indianapolis Center
10:05PM 39.6681 -87.6697 173° South 420 483 41,000  Level Indianapolis Center
10:06PM 39.5528 -87.6506 173° South 417 480 41,000  Level Indianapolis Center
10:07PM 39.4378 -87.6314 173° South 416 479 41,000  Level Indianapolis Center
10:08PM 39.3219 -87.6128 173° South 418 481 41,000  Level Indianapolis Center
10:09PM 39.2058 -87.5933 173° South 419 482 41,000  Level Indianapolis Center
10:10PM 39.0656 -87.5722 173° South 421 484 41,000  Level Indianapolis Center
10:11PM 38.9483 -87.5533 173° South 424 488 41,000  Level Indianapolis Center
10:12PM 38.8303 -87.5344 173° South 425 489 41,000  Level Indianapolis Center
10:13PM 38.7128 -87.5158 173° South 425 489 41,000  Level Indianapolis Center
10:14PM 38.5942 -87.4972 173° South 428 493 41,000  Level Indianapolis Center
10:15PM 38.4753 -87.4789 173° South 430 495 41,000  Level Indianapolis Center
10:16PM 38.3556 -87.4597 173° South 434 499 41,000  Level Indianapolis Center
10:17PM 38.2356 -87.4422 173° South 436 502 41,000  Level Indianapolis Center
10:18PM 38.1147 -87.4236 173° South 439 505 41,000  Level Indianapolis Center
10:19PM 37.9942 -87.4031 172° South 440 506 41,000  Level Indianapolis Center
10:20PM 37.8486 -87.3806 173° South 440 506 41,000  Level Indianapolis Center
10:21PM 37.7367 -87.3628 173° South 439 505 41,000  Level Indianapolis Center
10:22PM 37.6150 -87.3472 174° South 436 502 41,000  Level Indianapolis Center
10:23PM 37.5514 -87.3358 172° South 424 488 41,000  Level Memphis Center
10:24PM 37.4342 -87.3194 174° South 429 494 41,000  Level Memphis Center
10:25PM 37.3150 -87.3006 173° South 429 494 41,000  Level Memphis Center
10:26PM 37.1956 -87.2764 171° South 429 494 41,000  Level Memphis Center
10:27PM 37.0908 -87.2467 167° South 434 499 41,000  Level Memphis Center
10:28PM 36.9711 -87.2150 168° South 432 497 41,000  Level Memphis Center
10:29PM 36.8536 -87.1833 168° South 432 497 41,000  Level Memphis Center
10:30PM 36.7342 -87.1517 168° South 432 497 41,000  Level Memphis Center
10:31PM 36.6164 -87.1178 167° South 432 497 41,000  Level Memphis Center
10:32PM 36.4969 -87.0864 168° South 432 497 41,000  Level Memphis Center
10:33PM 36.3794 -87.0603 170° South 432 497 41,000  Level Memphis Center
10:34PM 36.2536 -87.0292 169° South 444 511 41,000  Level Memphis Center
10:35PM 36.1358 -86.9903 165° South 449 517 41,000  Level Memphis Center
10:36PM 36.0181 -86.9567 167° South 444 511 41,000  Level Memphis Center
10:37PM 35.9003 -86.9231 167° South 439 505 41,000 -600 Level Memphis Center
10:38PM 35.6797 -86.8636 168° South 449 517 39,500 -960 Descending Atlanta Center
10:39PM 35.5656 -86.8342 168° South 438 504 38,500 -960 Descending Atlanta Center
10:40PM 35.4472 -86.8022 168° South 433 498 37,600 -900 Descending Atlanta Center
10:41PM 35.3333 -86.7731 168° South 428 493 36,700 -960 Descending Atlanta Center
10:42PM 35.2150 -86.7411 168° South 433 498 35,700 -1,080 Descending Atlanta Center
10:43PM 35.0947 -86.7117 169° South 433 498 34,600 -2,100 Descending Atlanta Center
10:44PM 34.9764 -86.6800 168° South 433 498 31,500 -2,880 Descending Atlanta Center
10:45PM 34.9231 -86.6669 169° South 432 497 30,500 -2,460 Descending Memphis Center
10:46PM 34.8075 -86.6367 168° South 437 503 28,000 -2,520 Descending Memphis Center
10:47PM 34.6997 -86.6564 189° South 406 467 25,500 -2,400 Descending Memphis Center
10:48PM 34.5939 -86.6814 191° South 401 461 23,200 -2,340 Descending Memphis Center
10:49PM 34.5061 -86.7083 194° South 367 422 21,100 -2,340 Descending Atlanta Center
10:49PM 34.4811 -86.7075 178° South 393 452 20,500 -2,220 Descending Atlanta Center
10:50PM 34.3847 -86.7344 193° South 355 409 18,400 -2,400 Descending Atlanta Center
10:51PM 34.2819 -86.7539 189° South 368 423 15,800 -2,520 Descending Atlanta Center
10:52PM 34.1833 -86.7783 192° South 368 423 13,300 -2,460 Descending Atlanta Center
10:53PM 34.0889 -86.8056 193° South 346 398 11,100 -1,680 Descending Atlanta Center
10:54PM 34.0006 -86.8253 190° South 300 345 10,000 -1,380 Descending Atlanta Center
10:55PM 33.9272 -86.8428 191° South 263 303 8,400 -1,500 Descending Atlanta Center
10:56PM 33.8558 -86.8606 192° South 266 306 7,000 -1,200 Descending Atlanta Center
10:57PM 33.7972 -86.8711 189° South 258 297 6,000 -1,200 Descending Atlanta Center
10:58PM 33.7300 -86.8914 194° South 210 242 4,700 -1,320 Descending Atlanta Center